Terminal Aerodrome Forecast
Issued by NWS

Home | Current Version | Previous Version | Text Only | Print | Product List | Glossary On
Versions: 1 2 3 4 5 6 7 8 9 10 11 12 13 14
000
FTUS46 KSEW 261857 AAA
TAFPAE
TAF AMD
KPAE 261857Z 2619/2718 33008KT 2SM -RA BR VCSH BKN004 OVC025
      TEMPO 2619/2621 5SM -RA SCT005 OVC025
     FM262100 23010KT P6SM VCSH BKN025
     FM262300 29010G17KT P6SM VCSH SCT025 BKN040
     FM270600 20009KT P6SM OVC019=

USA.gov is the U.S. government's official web portal to all federal, state and local government web resources and services.